METAR Data
IDs: Format: Raw Decoded Include TAF

Data at: 1418 UTC 05 Aug 2021

METAR for:KEFD (Houston/Ellington Ar, TX, US)
Text:KEFD 051350Z 06008KT 10SM BKN090 28/22 A3006
Temperature: 28.0°C ( 82°F)
Dewpoint: 22.0°C ( 72°F) [RH = 70%]
Pressure (altimeter):30.06 inches Hg (1018.0 mb)
Winds:from the ENE (60 degrees) at 9 MPH (8 knots; 4.1 m/s)
Visibility:10 or more sm (16+ km)
Ceiling:9000 feet AGL
Clouds: broken clouds at 9000 feet AGL

TAF for:KEFD (Houston/Ellington Ar, TX, US) issued at 1200 UTC 05 Aug 2021
Text:TAF KEFD 051200Z 0512/0618 VRB06KT 9999 FEW030 BKN100 QNH2997INS TX33/0521Z TN26/0612Z
Forecast period:1200 UTC 05 August 2021 to 1800 UTC 06 August 2021
Forecast type:FROM: standard forecast or significant change
Winds:variable direction winds at 7 MPH (6 knots; 3.1 m/s)
Visibility:6 or more sm (10+ km)
Ceiling:10000 feet AGL
Clouds: few clouds at 3000 feet AGL, broken clouds at 10000 feet AGL